Time;durP1;ratioP1;P1;durP2;ratioP2;P2;SDS_P1;SDS_P2;PMS_P1;PMS_P2;Temp;Humidity;BMP_temperature;BMP_pressure;BME280_temperature;BME280_humidity;BME280_pressure;Samples;Min_cycle;Max_cycle;Signal;HPM_P1;HPM_P2
2021/09/14 00:01:27;;;;;;;6.47;5.20;;;;;;;24.95;40.06;95046.63;4996582;28;20042;-78
2021/09/14 00:03:53;;;;;;;7.65;4.90;;;;;;;24.92;40.30;95042.22;4986510;28;20031;-77
2021/09/14 00:06:18;;;;;;;8.05;5.10;;;;;;;24.93;39.80;95054.63;5011808;28;20038;-78
2021/09/14 00:08:43;;;;;;;6.80;4.95;;;;;;;24.93;40.12;95053.88;4996579;28;20037;-78
2021/09/14 00:11:09;;;;;;;6.10;4.55;;;;;;;24.92;40.11;95047.66;4995100;28;20496;-79
2021/09/14 00:13:34;;;;;;;7.13;4.68;;;;;;;24.89;40.42;95054.16;4996220;28;20420;-79
2021/09/14 00:16:00;;;;;;;6.35;4.80;;;;;;;24.90;39.90;95047.47;4995060;28;20044;-78
2021/09/14 00:18:25;;;;;;;7.25;4.78;;;;;;;24.89;40.20;95043.25;4991589;28;20034;-78
2021/09/14 00:20:50;;;;;;;7.78;4.43;;;;;;;24.90;40.53;95054.91;4987260;28;20444;-78
2021/09/14 00:23:16;;;;;;;8.02;4.70;;;;;;;24.90;40.07;95054.91;4986648;28;20449;-78
2021/09/14 00:25:41;;;;;;;8.13;5.57;;;;;;;24.89;40.45;95048.72;5000519;28;20477;-78
2021/09/14 00:28:07;;;;;;;6.55;4.72;;;;;;;24.81;40.08;95040.88;4987093;28;20026;-77
2021/09/14 00:30:32;;;;;;;6.68;4.50;;;;;;;24.89;40.37;95056.19;4986861;28;20101;-78
2021/09/14 00:32:58;;;;;;;6.20;4.65;;;;;;;24.87;40.00;95056.69;5002263;28;20030;-78
2021/09/14 00:35:23;;;;;;;5.75;4.50;;;;;;;24.86;40.16;95054.47;4987915;28;20029;-78
2021/09/14 00:37:49;;;;;;;6.38;4.28;;;;;;;24.87;40.50;95056.69;4973872;28;20045;-77
2021/09/14 00:40:14;;;;;;;6.18;4.40;;;;;;;24.86;40.06;95055.22;4987482;28;20026;-78
2021/09/14 00:42:40;;;;;;;6.97;4.55;;;;;;;24.78;40.44;95041.91;4999956;28;20556;-78
2021/09/14 00:45:06;;;;;;;7.70;5.10;;;;;;;24.85;40.32;95064.66;4985907;28;20505;-77
2021/09/14 00:47:31;;;;;;;6.18;4.60;;;;;;;24.81;40.27;95057.28;4986697;28;20137;-77
2021/09/14 00:49:57;;;;;;;6.95;4.82;;;;;;;24.85;40.36;95064.66;4986462;28;20446;-77
2021/09/14 00:52:23;;;;;;;6.68;4.47;;;;;;;24.82;40.60;95060.22;4985505;28;20033;-78
2021/09/14 00:54:48;;;;;;;7.38;4.70;;;;;;;24.72;40.54;95049.44;5016330;28;20014;-78
2021/09/14 00:57:14;;;;;;;7.10;4.68;;;;;;;24.83;40.56;95072.63;4987512;28;20023;-78
2021/09/14 00:59:39;;;;;;;7.32;4.97;;;;;;;24.83;40.07;95071.91;4986108;28;20014;-79
2021/09/14 01:02:05;;;;;;;6.65;4.50;;;;;;;24.78;40.46;95069.22;4985690;28;20034;-79
2021/09/14 01:04:30;;;;;;;6.22;4.25;;;;;;;24.78;40.36;95061.03;4987362;28;20028;-77
2021/09/14 01:06:56;;;;;;;6.40;4.43;;;;;;;24.82;40.20;95047.84;4986236;28;20026;-77
2021/09/14 01:09:23;;;;;;;7.22;4.78;;;;;;;24.73;40.35;95051.66;4986197;28;20037;-77
2021/09/14 01:11:48;;;;;;;7.28;4.80;;;;;;;24.82;40.56;95059.50;4986249;28;20026;-77
2021/09/14 01:14:14;;;;;;;5.30;4.25;;;;;;;24.81;40.08;95068.19;5002920;28;20025;-77
2021/09/14 01:16:40;;;;;;;6.15;4.60;;;;;;;24.77;40.42;95051.34;5001103;28;20041;-77
2021/09/14 01:19:06;;;;;;;7.88;4.70;;;;;;;24.82;40.74;95061.50;4987921;28;20493;-77
2021/09/14 01:21:32;;;;;;;6.93;4.65;;;;;;;24.80;40.27;95077.63;4985862;28;20018;-77
2021/09/14 01:23:58;;;;;;;7.25;4.88;;;;;;;24.67;40.71;95063.94;4985755;28;20449;-77
2021/09/14 01:26:23;;;;;;;6.20;4.80;;;;;;;24.80;40.22;95066.72;4985967;28;20080;-77
2021/09/14 01:28:49;;;;;;;6.85;4.68;;;;;;;24.78;40.77;95063.78;4985675;28;20516;-77
2021/09/14 01:31:14;;;;;;;7.18;5.15;;;;;;;24.79;40.75;95059.78;4986625;28;20022;-77
2021/09/14 01:33:45;;;;;;;6.80;4.65;;;;;;;24.79;40.77;95065.25;5003556;28;20125;-77
2021/09/14 01:36:10;;;;;;;6.35;4.95;;;;;;;24.78;40.22;95069.22;5005141;28;20042;-76
2021/09/14 01:38:36;;;;;;;6.25;4.47;;;;;;;24.78;40.29;95052.84;5003912;28;20033;-77
2021/09/14 01:41:01;;;;;;;7.25;4.60;;;;;;;24.77;40.63;95056.81;4992235;28;20073;-77
2021/09/14 01:43:27;;;;;;;6.35;4.90;;;;;;;24.76;40.88;95058.09;4986363;28;20520;-76
2021/09/14 01:45:52;;;;;;;7.60;4.50;;;;;;;24.75;40.29;95056.59;4985958;28;20030;-76
2021/09/14 01:48:18;;;;;;;7.90;5.28;;;;;;;24.76;40.22;95055.38;4986392;28;20026;-76
2021/09/14 01:50:45;;;;;;;7.35;4.82;;;;;;;24.72;40.17;95065.84;4989138;28;20018;-76
2021/09/14 01:53:10;;;;;;;7.60;5.15;;;;;;;24.75;40.53;95053.88;4987926;28;20030;-77
2021/09/14 01:55:36;;;;;;;6.30;4.78;;;;;;;24.74;40.27;95057.84;5004023;28;20045;-77
2021/09/14 01:58:01;;;;;;;6.75;4.68;;;;;;;24.76;40.94;95060.81;4989799;28;20508;-77
2021/09/14 02:00:30;;;;;;;6.85;4.53;;;;;;;24.74;40.40;95068.78;4988952;28;20042;-77
2021/09/14 02:30:16;;;;;;;8.50;5.20;;;;;;;24.71;40.47;95069.81;5008910;28;20060;-77
2021/09/14 02:41:06;;;;;;;9.30;5.10;;;;;;;24.68;41.07;95070.84;5009039;28;20057;-76
2021/09/14 03:00:03;;;;;;;6.13;4.28;;;;;;;24.64;41.13;95081.34;4986947;28;20042;-77
2021/09/14 03:02:29;;;;;;;6.47;4.70;;;;;;;24.63;41.14;95086.03;4986911;28;20420;-77
2021/09/14 03:04:54;;;;;;;6.35;4.53;;;;;;;24.56;41.02;95078.47;4988897;28;20029;-77
2021/09/14 03:07:20;;;;;;;5.35;4.47;;;;;;;24.46;40.44;95060.22;4995907;28;20025;-77
2021/09/14 03:09:45;;;;;;;6.60;4.80;;;;;;;24.56;41.17;95085.91;5008358;28;20620;-77
2021/09/14 03:12:11;;;;;;;7.20;5.10;;;;;;;24.63;41.04;95090.78;5007603;28;20516;-77
2021/09/14 03:14:36;;;;;;;6.97;4.68;;;;;;;24.54;40.72;95080.22;5004124;28;20025;-78
2021/09/14 03:17:02;;;;;;;5.95;4.75;;;;;;;24.62;41.23;95083.81;4988954;28;20030;-77
2021/09/14 03:19:27;;;;;;;5.75;4.40;;;;;;;24.60;41.12;95095.28;4998980;28;20121;-77
2021/09/14 03:21:53;;;;;;;6.53;4.70;;;;;;;24.60;40.65;95091.81;5007855;28;20040;-76
2021/09/14 03:24:18;;;;;;;6.05;4.53;;;;;;;24.61;41.01;95093.28;5007344;28;20679;-78
2021/09/14 03:26:44;;;;;;;7.55;4.70;;;;;;;24.60;40.47;95091.81;5002399;28;20463;-77
2021/09/14 03:29:09;;;;;;;7.80;5.20;;;;;;;24.60;40.98;95092.56;5007824;28;20025;-77
2021/09/14 03:31:36;;;;;;;6.82;4.60;;;;;;;24.59;40.74;95095.81;5006964;28;20083;-77
2021/09/14 03:34:02;;;;;;;7.85;5.10;;;;;;;24.58;40.80;95099.78;5006522;28;20048;-77
2021/09/14 03:36:27;;;;;;;7.97;5.13;;;;;;;24.59;40.66;95095.81;4999596;28;20489;-77
2021/09/14 03:38:53;;;;;;;6.65;4.53;;;;;;;24.59;40.72;95090.34;4987063;28;20033;-77
2021/09/14 03:41:18;;;;;;;7.60;5.05;;;;;;;24.55;40.46;95095.34;5002242;28;20037;-77
2021/09/14 03:43:44;;;;;;;9.80;5.15;;;;;;;24.57;40.95;95101.03;4987477;28;20053;-76
2021/09/14 03:46:09;;;;;;;7.22;4.93;;;;;;;24.56;40.57;95096.84;4987388;28;20030;-78
2021/09/14 03:48:35;;;;;;;6.97;5.15;;;;;;;24.56;40.86;95097.56;4988040;28;20464;-78
2021/09/14 03:51:00;;;;;;;7.10;5.10;;;;;;;24.56;40.69;95102.31;4986986;28;20500;-74
2021/09/14 03:53:25;;;;;;;6.65;4.72;;;;;;;24.58;40.79;95110.72;4985285;28;20477;-74
2021/09/14 03:55:51;;;;;;;6.65;4.50;;;;;;;24.57;40.69;95114.69;4978254;28;20026;-76
2021/09/14 03:58:16;;;;;;;8.02;4.95;;;;;;;24.60;41.05;95121.84;4982492;28;20026;-79
2021/09/14 04:00:43;;;;;;;7.85;4.63;;;;;;;24.60;40.82;95119.13;4979583;28;20034;-77
2021/09/14 04:03:17;;;;;;;6.72;4.68;;;;;;;24.39;41.08;95088.84;5008759;28;20393;-77
2021/09/14 04:05:57;;;;;;;7.25;4.63;;;;;;;24.59;40.65;95117.66;4979274;28;20010;-77
2021/09/14 04:10:48;;;;;;;5.60;4.17;;;;;;;24.53;41.17;95119.72;4981585;28;19928;-77
2021/09/14 04:13:13;;;;;;;7.30;4.78;;;;;;;24.59;41.32;95129.31;5001716;28;20719;-77
2021/09/14 04:15:39;;;;;;;8.25;4.93;;;;;;;24.48;41.39;95112.31;4984846;28;20022;-78
2021/09/14 04:18:04;;;;;;;6.90;4.78;;;;;;;24.58;41.45;95132.56;5002617;28;20065;-78
2021/09/14 04:20:30;;;;;;;7.72;5.32;;;;;;;24.57;41.06;95125.59;4986515;28;20045;-78
2021/09/14 04:22:56;;;;;;;7.10;4.93;;;;;;;24.62;41.56;95133.75;4986264;28;20069;-78
2021/09/14 04:25:21;;;;;;;7.43;4.90;;;;;;;24.63;41.09;95134.47;4986439;28;20028;-76
2021/09/14 04:27:49;;;;;;;6.00;4.55;;;;;;;24.60;41.07;95140.97;4986322;28;20030;-79
2021/09/14 04:30:15;;;;;;;5.68;4.22;;;;;;;24.62;41.43;95144.66;4987236;28;20068;-77
2021/09/14 04:32:40;;;;;;;7.15;4.80;;;;;;;24.64;41.42;95141.41;4985409;28;20030;-77
2021/09/14 04:35:06;;;;;;;8.40;4.70;;;;;;;24.61;41.59;95139.72;5017251;28;20418;-78
2021/09/14 04:37:31;;;;;;;7.28;4.93;;;;;;;24.64;41.31;95135.97;4992689;28;20030;-78
2021/09/14 04:39:57;;;;;;;6.93;5.03;;;;;;;24.63;41.28;95139.94;5003379;28;20040;-75
2021/09/14 04:42:22;;;;;;;7.18;4.80;;;;;;;24.62;41.60;95127.53;4995899;28;20022;-78
2021/09/14 04:44:48;;;;;;;7.55;4.78;;;;;;;24.66;40.95;95138.91;5001914;28;20045;-77
2021/09/14 04:47:13;;;;;;;8.30;5.18;;;;;;;24.66;41.29;95144.38;5001261;28;20045;-75
2021/09/14 04:49:38;;;;;;;7.43;5.18;;;;;;;24.68;41.57;95137.16;5005531;28;20096;-77
2021/09/14 04:52:06;;;;;;;7.13;4.95;;;;;;;24.72;41.45;95136.84;4999734;28;20033;-74
2021/09/14 04:54:35;;;;;;;7.45;5.38;;;;;;;24.74;41.25;95139.78;5003347;28;20067;-70
2021/09/14 04:57:01;;;;;;;8.23;5.65;;;;;;;24.74;41.28;95135.09;5000801;28;20059;-73
2021/09/14 04:59:26;;;;;;;29.45;19.70;;;;;;;24.71;39.25;95146.28;4996812;28;20040;-71
2021/09/14 05:01:52;;;;;;;65.97;42.50;;;;;;;24.68;39.16;95147.31;5009018;28;20476;-72
2021/09/14 05:04:18;;;;;;;78.68;51.95;;;;;;;24.57;39.00;95152.91;5005161;28;20476;-72
2021/09/14 05:06:43;;;;;;;84.10;59.03;;;;;;;24.48;39.84;95147.78;4998278;28;20116;-71
2021/09/14 05:09:09;;;;;;;31.83;20.52;;;;;;;24.45;39.51;95157.00;4992385;28;20034;-70
2021/09/14 05:11:34;;;;;;;24.38;16.15;;;;;;;24.41;39.04;95151.84;5003444;28;20804;-72
2021/09/14 05:14:00;;;;;;;16.45;9.07;;;;;;;24.04;39.59;95150.94;4978846;28;20533;-74
2021/09/14 05:16:25;;;;;;;16.92;10.98;;;;;;;24.01;40.22;95157.41;4999313;28;20030;-70
2021/09/14 05:18:51;;;;;;;20.23;10.10;;;;;;;24.06;39.91;95156.63;5001488;28;20030;-70
2021/09/14 05:21:16;;;;;;;14.10;9.23;;;;;;;24.15;39.99;95161.03;5001524;28;20017;-81
2021/09/14 05:23:42;;;;;;;13.75;8.95;;;;;;;24.19;39.92;95161.50;4999605;28;20030;-71
2021/09/14 05:26:07;;;;;;;14.15;8.77;;;;;;;24.02;40.37;95164.38;4995985;28;20784;-83
2021/09/14 05:28:35;;;;;;;13.27;8.63;;;;;;;24.18;39.78;95160.72;5004489;28;20038;-72
2021/09/14 05:31:00;;;;;;;12.90;8.52;;;;;;;24.15;40.25;95156.28;5007382;28;20041;-72
2021/09/14 05:33:26;;;;;;;14.52;8.88;;;;;;;24.28;40.02;95175.53;4999264;28;20037;-71
2021/09/14 05:35:52;;;;;;;13.50;9.20;;;;;;;24.24;40.38;95180.50;4997962;28;20018;-71
2021/09/14 05:38:19;;;;;;;13.23;8.82;;;;;;;24.26;40.43;95167.13;4977279;28;20822;-71
2021/09/14 05:40:45;;;;;;;14.43;9.30;;;;;;;24.22;39.60;95172.09;5007001;28;20749;-72
2021/09/14 05:43:10;;;;;;;15.93;9.35;;;;;;;24.22;40.13;95172.09;5002625;28;20046;-71
2021/09/14 05:45:36;;;;;;;15.65;9.00;;;;;;;24.28;39.58;95180.97;5005361;28;20025;-72
2021/09/14 05:48:02;;;;;;;13.18;9.05;;;;;;;24.21;40.31;95181.53;5001050;28;20447;-72
2021/09/14 05:50:27;;;;;;;15.65;9.32;;;;;;;24.31;40.05;95182.69;5004871;28;20022;-72
2021/09/14 05:52:53;;;;;;;18.23;9.68;;;;;;;24.33;40.03;95185.66;5001474;28;20262;-72
2021/09/14 05:55:18;;;;;;;14.05;9.32;;;;;;;24.33;39.68;95182.22;5005487;28;20017;-72
2021/09/14 05:57:43;;;;;;;15.57;10.27;;;;;;;24.36;39.62;95176.47;4986853;28;20075;-73
2021/09/14 06:00:09;;;;;;;13.88;9.50;;;;;;;24.30;39.08;95178.47;5006245;28;20145;-70
2021/09/14 06:02:35;;;;;;;13.45;9.30;;;;;;;24.39;39.13;95186.34;5005356;28;20088;-72
2021/09/14 06:05:01;;;;;;;17.27;9.93;;;;;;;24.39;39.83;95189.84;4989632;28;20023;-72
2021/09/14 06:07:26;;;;;;;18.92;9.52;;;;;;;24.42;39.83;95196.25;5001991;28;20046;-70
2021/09/14 06:09:52;;;;;;;17.60;10.00;;;;;;;24.29;39.81;95177.00;4992955;28;20025;-70
2021/09/14 06:12:17;;;;;;;18.67;10.15;;;;;;;24.51;39.69;95193.19;4988529;28;20692;-72
2021/09/14 06:14:42;;;;;;;18.08;10.25;;;;;;;24.53;39.27;95187.97;4983275;28;20022;-71
2021/09/14 06:17:08;;;;;;;17.33;11.27;;;;;;;24.33;39.11;95177.47;4991530;28;20026;-74
2021/09/14 06:19:33;;;;;;;16.02;10.77;;;;;;;24.13;39.85;95188.81;4990677;28;20034;-73
2021/09/14 06:22:01;;;;;;;13.32;9.27;;;;;;;24.05;40.35;95174.25;4989723;28;20037;-74
2021/09/14 06:24:26;;;;;;;20.92;9.63;;;;;;;24.10;40.04;95181.66;5004335;28;20033;-74
2021/09/14 06:26:52;;;;;;;17.17;10.23;;;;;;;24.00;39.96;95183.22;4989996;28;20027;-73
2021/09/14 06:29:17;;;;;;;16.23;8.65;;;;;;;23.98;40.04;95191.19;4999293;28;20033;-73
2021/09/14 06:31:43;;;;;;;17.75;9.45;;;;;;;24.04;39.77;95183.69;4991652;28;20048;-73
2021/09/14 06:34:08;;;;;;;12.55;8.95;;;;;;;24.01;39.89;95201.06;4989149;28;20026;-74
2021/09/14 06:36:34;;;;;;;14.93;9.65;;;;;;;23.99;39.67;95187.22;4989860;28;20029;-74
2021/09/14 06:38:59;;;;;;;16.02;10.20;;;;;;;23.90;39.78;95190.25;4989278;28;20046;-74
2021/09/14 06:41:25;;;;;;;20.58;9.10;;;;;;;23.81;40.30;95175.44;5004350;28;20655;-73
2021/09/14 06:43:51;;;;;;;15.70;9.00;;;;;;;23.86;39.65;95188.31;5005486;28;20050;-74
2021/09/14 06:46:16;;;;;;;13.90;9.07;;;;;;;23.86;39.58;95199.22;5010448;28;20060;-74
2021/09/14 06:48:42;;;;;;;11.73;8.50;;;;;;;23.87;39.49;95196.00;5007551;28;20028;-73
2021/09/14 06:51:07;;;;;;;14.73;8.23;;;;;;;23.80;40.15;95195.81;5010384;28;20029;-73
2021/09/14 06:53:33;;;;;;;13.48;8.18;;;;;;;23.84;39.68;95207.91;5008611;28;20049;-73
2021/09/14 06:55:58;;;;;;;12.40;8.10;;;;;;;23.89;39.85;95199.69;5003315;28;20113;-73
2021/09/14 06:58:24;;;;;;;14.02;7.85;;;;;;;23.92;39.26;95204.13;5005078;28;20022;-74
2021/09/14 07:00:49;;;;;;;12.73;7.63;;;;;;;23.90;39.64;95206.63;5006216;28;20044;-73
2021/09/14 07:03:15;;;;;;;11.57;7.85;;;;;;;23.88;39.67;95198.22;5000632;28;20036;-73
2021/09/14 07:05:40;;;;;;;11.00;7.85;;;;;;;23.86;39.58;95195.25;4988204;28;20022;-73
2021/09/14 07:08:06;;;;;;;10.43;7.45;;;;;;;23.90;39.86;95205.88;4988931;28;20096;-73
2021/09/14 07:10:31;;;;;;;11.30;7.78;;;;;;;23.90;40.00;95200.41;4989932;28;20118;-73
2021/09/14 07:12:57;;;;;;;22.38;9.35;;;;;;;23.89;39.90;95199.69;4988630;28;20485;-73
2021/09/14 07:15:22;;;;;;;15.77;8.43;;;;;;;23.91;39.52;95199.16;5003543;28;20033;-73
2021/09/14 07:17:48;;;;;;;12.38;8.43;;;;;;;23.88;39.87;95203.66;4987464;28;20064;-73
2021/09/14 07:20:13;;;;;;;13.85;8.80;;;;;;;23.92;39.56;95204.13;4988403;28;20432;-73
2021/09/14 07:22:39;;;;;;;18.50;9.30;;;;;;;23.83;39.49;95200.25;4988029;28;20117;-73
2021/09/14 07:25:04;;;;;;;16.05;8.15;;;;;;;23.86;39.70;95211.59;4987877;28;20701;-73
2021/09/14 07:27:30;;;;;;;12.75;7.93;;;;;;;23.81;39.73;95208.19;5003691;28;20041;-73
2021/09/14 07:29:56;;;;;;;13.85;8.95;;;;;;;23.90;39.76;95217.53;4987767;28;20056;-73
2021/09/14 07:32:21;;;;;;;16.90;9.07;;;;;;;23.88;39.87;95220.03;4987801;28;20030;-74
2021/09/14 07:34:46;;;;;;;16.20;8.70;;;;;;;23.90;39.40;95212.06;4987837;28;20413;-73
2021/09/14 07:37:12;;;;;;;16.88;8.85;;;;;;;23.94;39.43;95206.34;5000905;28;20108;-74
2021/09/14 07:39:37;;;;;;;14.27;8.77;;;;;;;23.89;39.55;95216.03;5007499;28;20080;-73
2021/09/14 07:42:03;;;;;;;16.70;8.20;;;;;;;23.89;39.52;95207.13;5006603;28;20037;-71
2021/09/14 07:44:28;;;;;;;15.38;8.50;;;;;;;23.89;39.34;95210.59;5006627;28;20440;-73
2021/09/14 07:46:54;;;;;;;19.40;9.30;;;;;;;23.92;39.58;95203.38;4989808;28;20409;-78
2021/09/14 07:49:19;;;;;;;17.60;9.65;;;;;;;23.95;39.55;95207.81;4987150;28;20029;-72
2021/09/14 07:51:45;;;;;;;20.67;10.25;;;;;;;23.94;39.78;95201.63;4984066;28;20078;-77
2021/09/14 07:54:10;;;;;;;21.35;10.25;;;;;;;23.94;39.74;95206.34;4968328;28;20467;-73
2021/09/14 07:56:36;;;;;;;23.10;12.00;;;;;;;23.87;39.49;95196.72;4987485;28;20029;-73
2021/09/14 07:59:02;;;;;;;14.15;9.30;;;;;;;23.95;39.58;95192.19;4994209;28;20065;-73
2021/09/14 08:01:28;;;;;;;18.90;8.73;;;;;;;24.13;38.87;95207.19;4985069;28;20062;-74
2021/09/14 08:03:53;;;;;;;18.23;8.88;;;;;;;24.18;38.84;95204.38;4987875;28;20040;-73
2021/09/14 08:06:19;;;;;;;22.83;9.40;;;;;;;24.23;38.67;95202.84;4985783;28;20099;-74
2021/09/14 08:08:44;;;;;;;13.52;8.63;;;;;;;24.23;38.44;95200.88;4983201;28;20034;-75
2021/09/14 08:11:09;;;;;;;13.90;8.32;;;;;;;24.22;39.21;95215.78;4981358;28;20033;-74
2021/09/14 08:13:35;;;;;;;25.92;9.82;;;;;;;24.25;38.87;95203.84;4969941;28;20042;-80
2021/09/14 08:16:01;;;;;;;21.48;9.90;;;;;;;24.21;38.56;95200.63;4987723;28;20781;-82
2021/09/14 08:18:26;;;;;;;22.10;8.23;;;;;;;24.16;38.28;95201.44;4991750;28;20088;-83
2021/09/14 08:20:52;;;;;;;14.95;8.45;;;;;;;24.14;38.28;95198.50;4984069;28;20390;-79
2021/09/14 08:23:17;;;;;;;20.35;7.90;;;;;;;24.15;38.71;95189.03;4976916;28;20073;-76
2021/09/14 08:25:42;;;;;;;15.93;8.18;;;;;;;24.01;38.52;95173.78;4974051;28;20038;-75
2021/09/14 08:28:08;;;;;;;24.73;8.90;;;;;;;24.15;38.49;95177.38;4979385;28;20038;-76
2021/09/14 08:30:33;;;;;;;25.08;9.10;;;;;;;24.19;38.34;95178.59;4986174;28;20038;-75
2021/09/14 08:32:59;;;;;;;21.60;7.82;;;;;;;24.16;38.21;95178.88;4999729;28;20045;-75
2021/09/14 08:35:24;;;;;;;18.30;9.23;;;;;;;24.25;38.26;95171.09;5023297;28;20013;-76
2021/09/14 08:37:50;;;;;;;21.55;8.63;;;;;;;24.16;38.43;95157.78;4989903;28;20082;-76
2021/09/14 08:40:15;;;;;;;18.13;7.05;;;;;;;24.31;37.48;95174.50;4990618;28;20022;-76
2021/09/14 08:42:41;;;;;;;14.65;6.38;;;;;;;24.24;37.43;95158.69;4991810;28;20027;-76
2021/09/14 08:45:08;;;;;;;15.32;6.03;;;;;;;24.32;37.77;95176.00;4992517;28;20065;-77
2021/09/14 08:47:34;;;;;;;18.08;6.10;;;;;;;24.30;37.91;95167.56;4990285;28;20120;-77
2021/09/14 08:49:59;;;;;;;11.68;5.90;;;;;;;24.25;37.17;95149.25;5005039;28;20442;-76
2021/09/14 08:52:25;;;;;;;12.27;5.65;;;;;;;24.35;37.54;95153.91;4988659;28;20068;-76
2021/09/14 08:54:50;;;;;;;10.55;5.47;;;;;;;24.45;37.20;95167.94;5004572;28;20262;-76
2021/09/14 08:57:16;;;;;;;11.10;5.15;;;;;;;24.39;37.37;95153.59;4987581;28;20023;-77
2021/09/14 08:59:48;;;;;;;13.63;6.28;;;;;;;24.53;37.41;95155.94;5007221;28;20038;-76
2021/09/14 09:02:18;;;;;;;10.45;5.60;;;;;;;24.57;37.68;95159.13;5013969;28;20061;-76
2021/09/14 09:05:00;;;;;;;13.32;5.28;;;;;;;24.60;37.54;95157.34;5012595;28;20052;-76
2021/09/14 09:07:35;;;;;;;10.82;5.07;;;;;;;24.64;37.71;95146.88;5009665;28;20037;-77
2021/09/14 09:10:19;;;;;;;8.23;5.07;;;;;;;24.69;38.02;95148.81;4991720;28;20041;-76
2021/09/14 09:12:48;;;;;;;11.23;5.07;;;;;;;24.71;37.25;95151.75;4992395;28;20026;-77
2021/09/14 09:15:30;;;;;;;11.87;5.50;;;;;;;24.63;37.47;95123.53;4994842;28;20030;-76
2021/09/14 09:18:03;;;;;;;8.30;4.55;;;;;;;24.78;37.88;95148.44;5005172;28;20877;-77
2021/09/14 09:20:29;;;;;;;11.20;4.07;;;;;;;24.71;37.12;95129.91;5007346;28;20051;-77
2021/09/14 09:23:03;;;;;;;6.80;4.30;;;;;;;24.84;37.72;95139.69;4987738;28;20512;-77
2021/09/14 09:25:28;;;;;;;7.97;4.78;;;;;;;24.87;37.63;95135.91;5005116;28;20018;-76
2021/09/14 09:28:19;;;;;;;12.23;4.60;;;;;;;24.88;37.56;95140.09;5009905;28;20523;-77
2021/09/14 09:30:56;;;;;;;5.95;4.53;;;;;;;24.92;37.58;95135.09;4988135;28;20098;-76
2021/09/14 09:33:26;;;;;;;7.20;4.60;;;;;;;24.96;37.19;95132.81;5017317;28;20460;-77
2021/09/14 09:35:51;;;;;;;12.02;4.50;;;;;;;24.90;37.09;95123.97;4983927;28;20555;-77
2021/09/14 09:38:17;;;;;;;8.25;4.07;;;;;;;24.90;36.60;95115.75;4983445;28;20033;-77
2021/09/14 09:40:43;;;;;;;5.88;4.57;;;;;;;25.00;36.75;95125.06;4999293;28;20041;-78
2021/09/14 09:43:09;;;;;;;7.38;4.30;;;;;;;25.05;36.25;95127.00;5010659;28;20069;-76
2021/09/14 09:45:47;;;;;;;7.78;4.00;;;;;;;24.96;36.19;95119.16;5015953;28;20032;-76
2021/09/14 09:48:14;;;;;;;6.65;3.85;;;;;;;25.09;36.23;95121.97;4998482;28;20531;-76
2021/09/14 09:50:40;;;;;;;6.65;3.53;;;;;;;25.11;36.65;95124.19;4978444;28;20050;-76
2021/09/14 09:53:08;;;;;;;6.63;3.83;;;;;;;25.07;36.56;95113.56;4992450;28;20474;-76
2021/09/14 09:55:34;;;;;;;5.38;3.85;;;;;;;25.11;36.60;95108.56;4989703;28;20022;-77
2021/09/14 09:58:05;;;;;;;7.20;4.25;;;;;;;25.17;36.54;95122.88;5005018;28;20755;-79
2021/09/14 10:00:33;;;;;;;6.57;4.20;;;;;;;25.25;36.93;95115.53;4994061;28;20031;-80
2021/09/14 10:03:01;;;;;;;9.20;4.22;;;;;;;25.29;36.73;95102.31;4979361;28;20019;-79
2021/09/14 10:05:35;;;;;;;9.90;4.38;;;;;;;25.20;36.10;95089.03;5013266;28;20026;-78
2021/09/14 10:08:12;;;;;;;8.52;3.58;;;;;;;25.36;35.93;95101.69;5012102;28;20027;-76
2021/09/14 10:10:39;;;;;;;10.73;4.10;;;;;;;25.30;36.44;95081.91;4998514;28;20026;-76
2021/09/14 10:13:05;;;;;;;7.15;3.92;;;;;;;25.43;36.20;95103.84;4989043;28;20033;-78
2021/09/14 10:15:44;;;;;;;7.40;4.20;;;;;;;25.47;35.65;95090.59;4988918;28;20040;-78
2021/09/14 10:18:11;;;;;;;6.45;3.90;;;;;;;25.50;36.46;95095.00;4990564;28;20026;-79
2021/09/14 10:20:44;;;;;;;8.40;3.88;;;;;;;25.55;36.08;95086.00;5006874;28;20022;-77
2021/09/14 10:23:19;;;;;;;6.75;4.30;;;;;;;25.51;36.40;95069.88;5005005;28;20027;-76
2021/09/14 10:25:49;;;;;;;8.65;4.15;;;;;;;25.71;36.28;95104.16;4988087;28;20108;-78
2021/09/14 10:28:15;;;;;;;6.25;3.65;;;;;;;25.77;36.16;95096.59;5003812;28;20052;-78
2021/09/14 10:30:41;;;;;;;7.88;3.60;;;;;;;25.85;36.24;95093.47;4989156;28;20034;-78
2021/09/14 10:33:23;;;;;;;9.55;4.43;;;;;;;25.84;36.04;95081.06;4991181;28;20405;-75
2021/09/14 10:35:49;;;;;;;7.88;3.72;;;;;;;26.05;35.94;95084.66;4994790;28;20038;-75
2021/09/14 10:38:15;;;;;;;9.15;4.20;;;;;;;26.14;35.88;95080.75;5000845;28;20061;-73
2021/09/14 10:40:45;;;;;;;6.25;3.60;;;;;;;26.25;35.88;95086.78;5004749;28;20511;-73
2021/09/14 10:43:21;;;;;;;8.85;3.95;;;;;;;26.36;34.70;95081.13;4993443;28;20607;-76
2021/09/14 10:45:47;;;;;;;10.02;4.15;;;;;;;26.51;33.37;95081.31;4997334;28;20037;-74
2021/09/14 10:48:26;;;;;;;5.00;3.50;;;;;;;26.62;34.63;95081.09;5004478;28;20053;-73
2021/09/14 10:50:53;;;;;;;5.72;3.70;;;;;;;26.76;33.77;95070.31;4998753;28;20057;-73
2021/09/14 10:53:27;;;;;;;5.05;3.50;;;;;;;26.84;33.67;95081.38;5004069;28;20038;-73
2021/09/14 10:55:58;;;;;;;7.15;3.70;;;;;;;26.87;33.14;95064.59;4972749;28;20094;-75
2021/09/14 10:58:24;;;;;;;8.38;3.90;;;;;;;26.90;32.83;95047.13;5001885;28;20030;-73
2021/09/14 11:00:49;;;;;;;5.90;3.22;;;;;;;27.10;33.28;95076.59;5003349;28;20447;-74
2021/09/14 11:03:17;;;;;;;6.18;3.38;;;;;;;27.12;32.31;95052.13;4999721;28;20030;-79
2021/09/14 11:05:46;;;;;;;7.28;3.38;;;;;;;27.35;32.25;95070.28;4972988;28;20647;-82
2021/09/14 11:08:11;;;;;;;5.57;3.45;;;;;;;27.42;32.21;95068.88;4990462;28;20014;-81
2021/09/14 11:10:41;;;;;;;7.38;3.40;;;;;;;27.37;31.85;95045.06;4995426;28;20018;-78
2021/09/14 11:13:07;;;;;;;6.95;3.00;;;;;;;27.57;32.05;95069.03;4990873;28;20023;-78
2021/09/14 11:15:33;;;;;;;5.13;3.45;;;;;;;27.56;31.77;95057.31;4999155;28;20033;-78
2021/09/14 11:17:58;;;;;;;5.57;3.60;;;;;;;27.67;31.65;95062.53;4991428;28;20022;-77
2021/09/14 11:20:26;;;;;;;9.50;3.50;;;;;;;27.69;31.70;95064.75;4989246;28;20026;-75
2021/09/14 11:22:53;;;;;;;7.20;3.13;;;;;;;27.79;31.80;95064.47;4989998;28;20045;-77
2021/09/14 11:25:31;;;;;;;5.65;3.42;;;;;;;27.87;31.30;95070.75;5003106;28;20109;-76
2021/09/14 11:27:57;;;;;;;5.38;3.53;;;;;;;27.89;31.65;95068.22;4995734;28;20041;-77
2021/09/14 11:30:23;;;;;;;5.28;3.47;;;;;;;27.95;31.08;95060.56;5002184;28;20037;-77
2021/09/14 11:32:50;;;;;;;6.47;3.50;;;;;;;27.88;31.12;95038.56;5001038;28;20026;-77
2021/09/14 11:35:16;;;;;;;6.10;3.92;;;;;;;27.97;31.07;95047.03;5007946;28;20041;-77
2021/09/14 11:37:41;;;;;;;7.10;3.40;;;;;;;28.05;30.58;95052.59;4990615;28;20034;-76
2021/09/14 11:40:16;;;;;;;6.10;3.65;;;;;;;28.05;30.40;95047.09;4987427;28;20460;-77
2021/09/14 11:42:54;;;;;;;6.50;3.35;;;;;;;27.99;30.59;95039.00;4988571;28;20041;-77
2021/09/14 11:45:24;;;;;;;6.63;3.22;;;;;;;28.15;30.82;95040.59;5004981;28;20066;-76
2021/09/14 11:47:50;;;;;;;7.07;3.47;;;;;;;28.20;30.50;95064.41;4989276;28;20108;-77
2021/09/14 11:50:29;;;;;;;8.00;3.45;;;;;;;28.23;30.37;95052.34;4986771;28;20026;-77
2021/09/14 11:53:05;;;;;;;4.95;3.45;;;;;;;28.27;30.01;95047.25;4988056;28;20034;-77
2021/09/14 11:55:31;;;;;;;7.78;3.40;;;;;;;28.34;30.05;95046.56;5009397;28;20026;-77
2021/09/14 11:57:57;;;;;;;5.50;3.22;;;;;;;28.32;29.60;95049.13;4998035;28;20034;-76
2021/09/14 12:00:37;;;;;;;7.20;3.28;;;;;;;28.37;29.96;95046.22;4989331;28;20611;-76
2021/09/14 12:03:03;;;;;;;;;;;;;;;28.42;29.53;95044.59;4989967;28;20796;-77
2021/09/14 12:05:28;;;;;;;6.40;3.00;;;;;;;28.46;29.52;95036.72;4989817;28;20016;-78
2021/09/14 12:07:58;;;;;;;5.65;3.20;;;;;;;28.63;29.50;95039.75;4987958;28;20485;-77
2021/09/14 12:10:24;;;;;;;6.13;3.10;;;;;;;28.61;29.17;95031.31;4988779;28;20485;-77
2021/09/14 12:12:53;;;;;;;5.18;2.85;;;;;;;28.70;28.67;95039.06;4991249;28;20026;-77
2021/09/14 12:15:20;;;;;;;4.90;2.83;;;;;;;28.76;28.71;95032.88;4990119;28;20039;-76
2021/09/14 12:17:45;;;;;;;5.22;3.05;;;;;;;28.83;29.04;95026.69;4992607;28;20069;-76
2021/09/14 12:20:11;;;;;;;5.63;3.25;;;;;;;28.73;28.80;95017.47;5005736;28;20154;-78
2021/09/14 12:22:36;;;;;;;9.45;4.22;;;;;;;28.82;28.48;95025.19;4999953;28;20034;-74